Time;durP1;ratioP1;P1;durP2;ratioP2;P2;SDS_P1;SDS_P2;PMS_P1;PMS_P2;Temp;Humidity;BMP_temperature;BMP_pressure;BME280_temperature;BME280_humidity;BME280_pressure;Samples;Min_cycle;Max_cycle;Signal;HPM_P1;HPM_P2
2022/11/01 00:00:33;;;;;;;;;25.75;24.50;;;;;;;;5205564;28;8783;-76
2022/11/01 00:03:04;;;;;;;;;21.60;21.60;;;;;;;;5204092;28;12350;-76
2022/11/01 00:05:35;;;;;;;;;25.50;25.50;;;;;;;;5181874;28;8920;-74
2022/11/01 00:08:06;;;;;;;;;37.00;33.80;;;;;;;;5166645;28;11613;-76
2022/11/01 00:10:37;;;;;;;;;61.00;48.20;;;;;;;;5221698;27;8790;-73
2022/11/01 00:13:09;;;;;;;;;49.00;42.60;;;;;;;;5188984;28;8786;-72
2022/11/01 00:15:40;;;;;;;;;40.20;38.20;;;;;;;;5221752;28;9651;-73
2022/11/01 00:18:11;;;;;;;;;53.80;45.00;;;;;;;;5221584;27;8834;-74
2022/11/01 00:21:01;;;;;;;;;48.00;41.20;;;;;;;;5205705;28;8817;-72
2022/11/01 00:23:32;;;;;;;;;35.60;32.20;;;;;;;;5168464;28;8789;-73
2022/11/01 00:26:03;;;;;;;;;30.20;29.00;;;;;;;;5184560;28;8790;-73
2022/11/01 00:28:34;;;;;;;;;20.80;20.80;;;;;;;;5202170;28;8874;-72
2022/11/01 00:31:06;;;;;;;;;16.60;16.60;;;;;;;;5184808;28;8781;-72
2022/11/01 00:33:38;;;;;;;;;23.60;23.20;;;;;;;;5168388;28;8940;-71
2022/11/01 00:36:10;;;;;;;;;23.40;22.80;;;;;;;;5202404;28;8784;-72
2022/11/01 00:38:41;;;;;;;;;26.20;25.40;;;;;;;;5201047;28;8813;-72
2022/11/01 00:41:14;;;;;;;;;25.00;24.20;;;;;;;;5168298;28;8801;-71
2022/11/01 00:43:45;;;;;;;;;21.40;21.40;;;;;;;;5180286;28;8804;-72
2022/11/01 00:46:17;;;;;;;;;24.20;21.40;;;;;;;;5164191;28;8788;-71
2022/11/01 00:48:48;;;;;;;;;21.80;20.40;;;;;;;;5184695;28;8829;-72
2022/11/01 00:51:38;;;;;;;;;16.40;16.00;;;;;;;;5221380;28;8791;-71
2022/11/01 00:54:09;;;;;;;;;19.80;19.60;;;;;;;;5222466;28;8783;-71
2022/11/01 00:56:41;;;;;;;;;46.20;41.80;;;;;;;;5219140;28;8819;-71
2022/11/01 00:59:12;;;;;;;;;61.40;50.40;;;;;;;;5188497;28;8818;-72
2022/11/01 01:01:43;;;;;;;;;29.40;28.00;;;;;;;;5204775;28;8771;-71
2022/11/01 01:04:14;;;;;;;;;25.60;23.20;;;;;;;;5204149;28;8800;-72
2022/11/01 01:06:45;;;;;;;;;20.20;20.20;;;;;;;;5200879;28;8813;-72
2022/11/01 01:09:17;;;;;;;;;20.60;20.20;;;;;;;;5183992;28;8778;-72
2022/11/01 01:11:48;;;;;;;;;29.00;26.60;;;;;;;;5183924;28;8923;-72
2022/11/01 01:14:20;;;;;;;;;26.40;25.00;;;;;;;;5184110;28;8786;-72
2022/11/01 01:16:51;;;;;;;;;29.00;26.80;;;;;;;;5167923;28;8813;-72
2022/11/01 01:19:41;;;;;;;;;33.80;32.60;;;;;;;;5187171;28;8805;-72
2022/11/01 01:22:12;;;;;;;;;31.20;29.80;;;;;;;;5190981;28;8862;-73
2022/11/01 01:24:46;;;;;;;;;25.40;23.20;;;;;;;;5186281;28;8775;-76
2022/11/01 01:27:36;;;;;;;;;14.80;13.60;;;;;;;;5179876;28;8799;-76
2022/11/01 01:30:07;;;;;;;;;13.00;13.00;;;;;;;;5163904;28;8780;-76
2022/11/01 01:32:38;;;;;;;;;19.40;18.80;;;;;;;;5163603;28;8881;-75
2022/11/01 01:35:10;;;;;;;;;15.40;15.40;;;;;;;;5180923;28;9561;-75
2022/11/01 01:37:41;;;;;;;;;11.20;11.20;;;;;;;;5163707;28;8914;-76
2022/11/01 01:40:12;;;;;;;;;15.00;14.80;;;;;;;;5163421;28;8844;-75
2022/11/01 01:42:46;;;;;;;;;13.40;13.40;;;;;;;;5147342;28;8788;-75
2022/11/01 01:45:29;;;;;;;;;28.00;27.20;;;;;;;;5172972;28;8806;-75
2022/11/01 01:48:09;;;;;;;;;24.80;24.80;;;;;;;;5220665;28;9549;-73
2022/11/01 01:51:03;;;;;;;;;23.20;23.00;;;;;;;;5223255;28;8906;-74
2022/11/01 01:53:39;;;;;;;;;15.20;15.20;;;;;;;;5191815;28;8779;-74
2022/11/01 01:56:13;;;;;;;;;18.40;17.80;;;;;;;;5207508;28;8790;-73
2022/11/01 01:58:53;;;;;;;;;21.60;21.60;;;;;;;;5191132;28;8850;-72
2022/11/01 02:01:25;;;;;;;;;26.20;26.00;;;;;;;;5187433;28;8816;-71
2022/11/01 02:03:56;;;;;;;;;18.40;18.40;;;;;;;;5166449;28;8788;-73
2022/11/01 02:06:28;;;;;;;;;16.60;15.80;;;;;;;;5185807;28;8790;-72
2022/11/01 02:09:17;;;;;;;;;27.00;27.00;;;;;;;;5204275;28;8861;-73
2022/11/01 02:11:48;;;;;;;;;32.40;32.40;;;;;;;;5170232;28;8794;-72
2022/11/01 02:14:23;;;;;;;;;38.80;38.40;;;;;;;;5186915;28;8818;-73
2022/11/01 02:17:00;;;;;;;;;21.00;21.00;;;;;;;;5203251;28;8882;-74
2022/11/01 02:19:37;;;;;;;;;25.00;23.20;;;;;;;;5182489;28;8820;-72
2022/11/01 02:22:15;;;;;;;;;25.40;25.40;;;;;;;;5166961;28;8862;-76
2022/11/01 02:24:52;;;;;;;;;21.80;21.80;;;;;;;;5202841;28;8787;-75
2022/11/01 02:27:27;;;;;;;;;21.80;21.80;;;;;;;;5190627;28;8799;-75
2022/11/01 02:30:04;;;;;;;;;13.00;13.00;;;;;;;;5224691;27;9551;-75
2022/11/01 02:32:39;;;;;;;;;10.80;10.80;;;;;;;;5169658;28;8861;-76
2022/11/01 02:35:35;;;;;;;;;6.80;6.80;;;;;;;;5203079;28;8914;-75
2022/11/01 02:38:08;;;;;;;;;13.00;13.00;;;;;;;;5189299;28;8813;-74
2022/11/01 02:40:46;;;;;;;;;9.00;8.80;;;;;;;;5189302;28;8829;-75
2022/11/01 02:43:24;;;;;;;;;7.20;7.20;;;;;;;;5193566;28;8803;-76
2022/11/01 02:45:56;;;;;;;;;10.20;10.20;;;;;;;;5190454;28;8859;-77
2022/11/01 02:48:27;;;;;;;;;7.80;7.80;;;;;;;;5198283;28;8816;-76
2022/11/01 02:50:59;;;;;;;;;10.40;10.40;;;;;;;;5165246;28;8800;-76
2022/11/01 02:53:48;;;;;;;;;14.00;14.00;;;;;;;;5167971;28;8788;-74
2022/11/01 02:56:21;;;;;;;;;13.20;13.20;;;;;;;;5181545;28;8803;-75
2022/11/01 02:58:53;;;;;;;;;17.80;15.60;;;;;;;;5175549;28;9550;-74
2022/11/01 03:01:27;;;;;;;;;11.80;11.80;;;;;;;;5180711;28;8835;-75
2022/11/01 03:03:59;;;;;;;;;13.60;13.60;;;;;;;;5216037;28;8779;-75
2022/11/01 03:06:37;;;;;;;;;12.60;12.60;;;;;;;;5204745;28;9648;-75
2022/11/01 03:09:10;;;;;;;;;13.20;13.20;;;;;;;;5206425;28;8786;-77
2022/11/01 03:11:48;;;;;;;;;5.00;5.00;;;;;;;;5222421;27;8783;-75
2022/11/01 03:14:23;;;;;;;;;6.20;6.20;;;;;;;;5206643;28;8883;-75
2022/11/01 03:17:23;;;;;;;;;9.80;9.80;;;;;;;;5188206;28;8803;-76
2022/11/01 03:20:24;;;;;;;;;11.40;11.00;;;;;;;;5184629;28;8835;-73
2022/11/01 03:22:57;;;;;;;;;4.40;4.40;;;;;;;;5203163;28;8812;-73
2022/11/01 03:25:39;;;;;;;;;7.40;5.20;;;;;;;;5184613;28;8881;-75
2022/11/01 03:28:35;;;;;;;;;8.40;6.40;;;;;;;;5186885;28;8763;-74
2022/11/01 03:31:10;;;;;;;;;6.00;6.00;;;;;;;;5184746;28;8921;-73
2022/11/01 03:33:47;;;;;;;;;9.80;9.80;;;;;;;;5168394;28;9647;-75
2022/11/01 03:36:20;;;;;;;;;22.00;20.40;;;;;;;;5200742;28;8801;-75
2022/11/01 03:38:59;;;;;;;;;16.80;15.40;;;;;;;;5184057;28;8820;-75
2022/11/01 03:41:35;;;;;;;;;18.00;17.60;;;;;;;;5199147;28;8929;-73
2022/11/01 03:44:07;;;;;;;;;19.80;19.00;;;;;;;;5223727;28;8863;-73
2022/11/01 03:46:39;;;;;;;;;14.60;14.60;;;;;;;;5205777;28;8839;-73
2022/11/01 03:49:15;;;;;;;;;14.00;13.80;;;;;;;;5205769;28;8913;-73
2022/11/01 03:51:46;;;;;;;;;19.20;19.00;;;;;;;;5222777;28;8798;-75
2022/11/01 03:54:18;;;;;;;;;14.80;14.80;;;;;;;;5205508;28;8763;-75
2022/11/01 03:56:49;;;;;;;;;10.75;10.75;;;;;;;;5187944;28;8816;-74
2022/11/01 03:59:22;;;;;;;;;13.60;13.20;;;;;;;;5164951;28;10328;-75
2022/11/01 04:01:53;;;;;;;;;10.80;10.80;;;;;;;;5208349;28;8803;-74
2022/11/01 04:04:24;;;;;;;;;16.00;15.60;;;;;;;;5204294;28;8805;-75
2022/11/01 04:07:13;;;;;;;;;13.00;13.00;;;;;;;;5182298;28;8788;-76
2022/11/01 04:09:44;;;;;;;;;12.25;12.25;;;;;;;;5164785;28;8792;-74
2022/11/01 04:12:15;;;;;;;;;13.60;11.20;;;;;;;;5180573;28;11409;-75
2022/11/01 04:20:54;;;;;;;;;3.40;3.40;;;;;;;;5178963;28;8815;-74
2022/11/01 04:23:26;;;;;;;;;3.20;3.20;;;;;;;;5189047;28;8767;-74
2022/11/01 04:25:57;;;;;;;;;6.40;6.20;;;;;;;;5205051;28;8786;-74
2022/11/01 04:28:28;;;;;;;;;12.20;12.20;;;;;;;;5188748;28;8853;-73
2022/11/01 04:30:59;;;;;;;;;9.60;9.60;;;;;;;;5205088;28;8791;-71
2022/11/01 04:33:30;;;;;;;;;14.00;13.50;;;;;;;;5212824;28;8771;-70
2022/11/01 04:36:05;;;;;;;;;18.60;18.60;;;;;;;;5184445;28;8791;-70
2022/11/01 04:38:36;;;;;;;;;20.40;20.00;;;;;;;;5168159;28;9586;-71
2022/11/01 04:41:07;;;;;;;;;22.25;22.25;;;;;;;;5184306;28;8806;-71
2022/11/01 04:43:57;;;;;;;;;25.80;25.80;;;;;;;;5187198;28;8889;-71
2022/11/01 04:46:29;;;;;;;;;24.20;23.60;;;;;;;;5197596;28;8886;-73
2022/11/01 04:49:00;;;;;;;;;30.00;28.40;;;;;;;;5180634;28;8803;-71
2022/11/01 04:51:31;;;;;;;;;29.80;29.60;;;;;;;;5219646;28;8859;-71
2022/11/01 04:54:02;;;;;;;;;26.00;24.80;;;;;;;;5184133;28;8941;-71
2022/11/01 04:56:33;;;;;;;;;25.00;24.40;;;;;;;;5178617;28;8792;-71
2022/11/01 04:59:04;;;;;;;;;33.25;30.50;;;;;;;;5178671;28;8795;-72
2022/11/01 05:01:35;;;;;;;;;41.50;39.50;;;;;;;;5162149;28;10334;-71
2022/11/01 05:04:07;;;;;;;;;40.00;35.80;;;;;;;;5148019;28;9443;-72
2022/11/01 05:06:57;;;;;;;;;38.20;37.00;;;;;;;;5167843;28;9543;-71
2022/11/01 05:09:28;;;;;;;;;47.60;42.60;;;;;;;;5178165;28;8914;-71
2022/11/01 05:11:59;;;;;;;;;20.00;19.00;;;;;;;;5162078;28;8935;-71
2022/11/01 05:14:30;;;;;;;;;12.60;12.60;;;;;;;;5199791;28;8791;-71
2022/11/01 05:17:01;;;;;;;;;22.60;21.80;;;;;;;;5184373;28;8811;-72
2022/11/01 05:19:32;;;;;;;;;18.50;17.50;;;;;;;;5219237;28;8830;-72
2022/11/01 05:22:04;;;;;;;;;13.80;13.80;;;;;;;;5218844;27;8778;-80
2022/11/01 05:24:36;;;;;;;;;26.40;26.40;;;;;;;;5203573;28;9559;-79
2022/11/01 05:27:08;;;;;;;;;30.60;30.60;;;;;;;;5189879;28;8950;-78
2022/11/01 05:29:40;;;;;;;;;27.80;27.80;;;;;;;;5195522;28;9667;-79
2022/11/01 05:32:12;;;;;;;;;44.40;41.20;;;;;;;;5206878;28;8833;-79
2022/11/01 05:34:48;;;;;;;;;16.20;15.60;;;;;;;;5206103;28;8806;-80
2022/11/01 05:37:25;;;;;;;;;20.00;19.80;;;;;;;;5189922;28;8810;-82
2022/11/01 05:40:21;;;;;;;;;2.00;1.00;;;;;;;;5222241;28;8969;-79
2022/11/01 05:42:53;;;;;;;;;25.20;24.00;;;;;;;;5189690;28;8818;-78
2022/11/01 05:45:25;;;;;;;;;28.40;26.00;;;;;;;;5222759;27;8940;-80
2022/11/01 05:48:01;;;;;;;;;45.60;42.20;;;;;;;;5189831;28;8794;-82
2022/11/01 05:50:33;;;;;;;;;36.80;34.20;;;;;;;;5203435;28;8786;-81
2022/11/01 05:53:05;;;;;;;;;69.20;55.20;;;;;;;;5201935;28;8809;-78
2022/11/01 05:55:38;;;;;;;;;34.20;33.60;;;;;;;;5185612;28;8789;-83
2022/11/01 05:58:10;;;;;;;;;23.80;23.80;;;;;;;;5168864;28;8801;-80
2022/11/01 06:01:02;;;;;;;;;25.20;25.20;;;;;;;;5187788;28;8825;-79
2022/11/01 06:03:35;;;;;;;;;20.40;20.40;;;;;;;;5183531;28;9588;-79
2022/11/01 06:06:07;;;;;;;;;38.80;38.40;;;;;;;;5184383;28;8841;-80
2022/11/01 06:08:40;;;;;;;;;39.40;38.40;;;;;;;;5167824;28;9569;-81
2022/11/01 06:11:12;;;;;;;;;30.80;29.60;;;;;;;;5223552;28;9520;-79
2022/11/01 06:13:45;;;;;;;;;46.20;42.00;;;;;;;;5189604;28;8795;-79
2022/11/01 06:16:17;;;;;;;;;42.80;41.00;;;;;;;;5190814;28;8799;-80
2022/11/01 06:18:49;;;;;;;;;20.00;19.20;;;;;;;;5190662;28;8819;-79
2022/11/01 06:21:21;;;;;;;;;27.20;26.40;;;;;;;;5190580;28;8810;-79
2022/11/01 06:23:53;;;;;;;;;25.00;24.20;;;;;;;;5207710;28;8809;-82
2022/11/01 06:26:44;;;;;;;;;16.40;16.40;;;;;;;;5209621;28;8794;-79
2022/11/01 06:29:17;;;;;;;;;27.80;26.60;;;;;;;;5174199;28;9637;-80
2022/11/01 06:31:50;;;;;;;;;35.80;34.00;;;;;;;;5166221;28;8788;-80
2022/11/01 06:34:22;;;;;;;;;34.60;34.60;;;;;;;;5156158;28;8810;-80
2022/11/01 06:36:55;;;;;;;;;33.80;33.20;;;;;;;;5168948;28;8856;-77
2022/11/01 06:39:27;;;;;;;;;53.40;46.00;;;;;;;;5186377;28;8811;-77
2022/11/01 06:41:59;;;;;;;;;32.80;32.80;;;;;;;;5186520;28;8779;-79
2022/11/01 06:44:31;;;;;;;;;50.40;43.40;;;;;;;;5186435;28;8782;-81
2022/11/01 06:47:02;;;;;;;;;33.80;32.80;;;;;;;;5186691;28;8906;-73
2022/11/01 06:49:34;;;;;;;;;24.80;24.80;;;;;;;;5166162;28;8902;-80
2022/11/01 06:52:06;;;;;;;;;39.00;38.00;;;;;;;;5165982;28;9548;-81
2022/11/01 06:54:57;;;;;;;;;27.40;26.00;;;;;;;;5182117;28;8820;-74
2022/11/01 06:57:29;;;;;;;;;53.20;46.40;;;;;;;;5166294;28;8784;-75
2022/11/01 06:59:59;;;;;;;;;36.60;36.20;;;;;;;;5176673;28;8807;-74
2022/11/01 07:02:31;;;;;;;;;20.60;20.60;;;;;;;;5203403;28;9584;-74
2022/11/01 07:05:02;;;;;;;;;22.00;21.80;;;;;;;;5174570;28;8771;-74
2022/11/01 07:07:34;;;;;;;;;25.20;24.60;;;;;;;;5223429;28;8828;-74
2022/11/01 07:10:05;;;;;;;;;24.60;24.60;;;;;;;;5210009;28;8812;-75
2022/11/01 07:12:36;;;;;;;;;30.60;30.60;;;;;;;;5176657;28;8796;-74
2022/11/01 07:15:07;;;;;;;;;26.40;25.00;;;;;;;;5165418;28;9510;-74
2022/11/01 07:17:38;;;;;;;;;20.40;20.40;;;;;;;;5194408;28;8866;-75
2022/11/01 07:20:09;;;;;;;;;16.80;16.20;;;;;;;;5186459;28;8785;-75
2022/11/01 07:23:01;;;;;;;;;29.00;28.00;;;;;;;;5188317;28;8849;-75
2022/11/01 07:25:32;;;;;;;;;53.40;45.20;;;;;;;;5185757;28;8781;-75
2022/11/01 07:28:03;;;;;;;;;26.60;26.60;;;;;;;;5185413;28;8813;-75
2022/11/01 07:30:35;;;;;;;;;33.40;32.40;;;;;;;;5165066;28;8792;-75
2022/11/01 07:33:05;;;;;;;;;45.80;38.20;;;;;;;;5181400;28;8788;-74
2022/11/01 07:35:37;;;;;;;;;32.00;31.25;;;;;;;;5165234;28;8784;-73
2022/11/01 07:38:09;;;;;;;;;37.20;37.00;;;;;;;;5181013;28;11514;-72
2022/11/01 07:40:40;;;;;;;;;46.80;41.80;;;;;;;;5204296;28;8814;-73
2022/11/01 07:43:12;;;;;;;;;39.00;36.20;;;;;;;;5222164;28;8775;-75
2022/11/01 07:45:43;;;;;;;;;32.00;29.00;;;;;;;;5187329;28;8811;-71
2022/11/01 07:48:16;;;;;;;;;26.60;25.40;;;;;;;;5208843;27;8805;-72
2022/11/01 07:50:48;;;;;;;;;32.00;31.80;;;;;;;;5167343;28;8927;-76
2022/11/01 07:53:19;;;;;;;;;20.80;20.80;;;;;;;;5168848;28;9540;-73
2022/11/01 07:56:08;;;;;;;;;24.80;23.40;;;;;;;;5220259;28;8779;-74
2022/11/01 07:58:42;;;;;;;;;25.25;25.00;;;;;;;;5217835;27;8809;-74
2022/11/01 08:01:13;;;;;;;;;29.60;29.60;;;;;;;;5188986;28;10029;-75
2022/11/01 08:03:44;;;;;;;;;29.20;28.40;;;;;;;;5206781;28;8806;-73
2022/11/01 08:06:15;;;;;;;;;19.75;19.75;;;;;;;;5199524;28;8874;-72
2022/11/01 08:08:46;;;;;;;;;26.00;25.20;;;;;;;;5167773;28;12282;-71
2022/11/01 08:11:17;;;;;;;;;17.25;16.00;;;;;;;;5198658;28;8825;-72
2022/11/01 08:13:48;;;;;;;;;18.00;17.80;;;;;;;;5166978;28;8920;-73
2022/11/01 08:16:19;;;;;;;;;23.00;22.50;;;;;;;;5166573;28;8944;-74
2022/11/01 08:18:50;;;;;;;;;24.00;23.40;;;;;;;;5162575;28;10909;-77
2022/11/01 08:21:39;;;;;;;;;23.00;22.20;;;;;;;;5206395;28;8845;-71
2022/11/01 08:24:10;;;;;;;;;37.00;36.00;;;;;;;;5221313;28;8791;-73
2022/11/01 08:26:41;;;;;;;;;13.60;13.60;;;;;;;;5188708;28;8802;-72
2022/11/01 08:29:12;;;;;;;;;21.40;20.40;;;;;;;;5188652;28;8799;-70
2022/11/01 08:32:02;;;;;;;;;28.00;28.00;;;;;;;;5207514;28;8793;-72
2022/11/01 08:34:33;;;;;;;;;12.00;12.00;;;;;;;;5181059;28;8828;-72
2022/11/01 08:37:05;;;;;;;;;37.00;37.00;;;;;;;;5180350;28;9522;-73
2022/11/01 08:39:37;;;;;;;;;40.50;37.75;;;;;;;;5199831;28;9720;-72
2022/11/01 08:42:08;;;;;;;;;23.00;21.80;;;;;;;;5205212;28;8778;-72
2022/11/01 08:44:39;;;;;;;;;47.60;42.20;;;;;;;;5204866;28;8875;-72
2022/11/01 08:47:10;;;;;;;;;38.20;37.20;;;;;;;;5204658;28;8790;-73
2022/11/01 08:49:41;;;;;;;;;28.80;28.80;;;;;;;;5204739;28;8779;-72
2022/11/01 08:52:12;;;;;;;;;6.00;6.00;;;;;;;;5205038;28;8775;-73
2022/11/01 08:54:43;;;;;;;;;61.60;50.40;;;;;;;;5188327;28;8814;-72
2022/11/01 08:57:14;;;;;;;;;58.00;46.00;;;;;;;;5204695;28;8787;-78
2022/11/01 08:59:45;;;;;;;;;76.00;61.60;;;;;;;;5189214;28;8795;-77
2022/11/01 09:02:17;;;;;;;;;43.40;39.20;;;;;;;;5192051;28;8787;-78
2022/11/01 09:04:48;;;;;;;;;41.20;37.80;;;;;;;;5208552;28;8809;-78
2022/11/01 09:07:37;;;;;;;;;73.20;59.00;;;;;;;;5210872;28;8789;-76
2022/11/01 09:10:09;;;;;;;;;39.40;35.60;;;;;;;;5207879;28;9505;-79
2022/11/01 09:12:59;;;;;;;;;21.80;21.80;;;;;;;;5209300;28;8783;-79
2022/11/01 09:15:48;;;;;;;;;29.40;28.80;;;;;;;;5183992;28;8840;-78
2022/11/01 09:18:20;;;;;;;;;25.80;25.80;;;;;;;;5167222;28;8927;-77
2022/11/01 09:20:54;;;;;;;;;27.80;27.20;;;;;;;;5167232;28;8796;-77
2022/11/01 09:23:25;;;;;;;;;40.80;38.00;;;;;;;;5166715;28;8826;-78
2022/11/01 09:26:04;;;;;;;;;34.20;32.60;;;;;;;;5167263;28;8826;-77
2022/11/01 09:28:54;;;;;;;;;44.00;40.80;;;;;;;;5169613;28;8812;-78
2022/11/01 09:31:25;;;;;;;;;15.00;14.80;;;;;;;;5167155;28;8769;-76
2022/11/01 09:33:56;;;;;;;;;14.40;14.40;;;;;;;;5167245;28;8919;-79
2022/11/01 09:36:28;;;;;;;;;21.00;20.20;;;;;;;;5166958;28;8858;-78
2022/11/01 09:38:59;;;;;;;;;10.60;10.60;;;;;;;;5167027;28;8820;-78
2022/11/01 09:41:34;;;;;;;;;12.20;12.20;;;;;;;;5166841;28;8808;-76
2022/11/01 09:44:25;;;;;;;;;13.80;13.00;;;;;;;;5169815;28;8808;-79
2022/11/01 09:47:17;;;;;;;;;17.20;16.40;;;;;;;;5169551;28;8807;-79
2022/11/01 09:50:00;;;;;;;;;32.80;27.40;;;;;;;;5166745;28;8780;-78
2022/11/01 09:52:31;;;;;;;;;20.60;20.00;;;;;;;;5183458;28;8776;-75
2022/11/01 09:55:02;;;;;;;;;33.80;31.00;;;;;;;;5183139;28;8788;-78
2022/11/01 09:57:34;;;;;;;;;43.00;35.40;;;;;;;;5166784;28;8827;-79
2022/11/01 10:00:08;;;;;;;;;78.20;56.80;;;;;;;;5166690;28;8792;-77
2022/11/01 10:02:49;;;;;;;;;51.80;43.60;;;;;;;;5183320;28;8795;-76
2022/11/01 10:05:31;;;;;;;;;27.00;23.00;;;;;;;;5167186;28;8791;-78
2022/11/01 10:08:02;;;;;;;;;47.60;41.00;;;;;;;;5166683;28;8768;-77
2022/11/01 10:10:39;;;;;;;;;36.00;35.20;;;;;;;;5167320;28;8835;-78
2022/11/01 10:13:10;;;;;;;;;18.40;17.80;;;;;;;;5200617;28;8836;-76
2022/11/01 10:15:41;;;;;;;;;8.60;8.60;;;;;;;;5167242;28;8800;-75
2022/11/01 10:18:12;;;;;;;;;26.40;23.80;;;;;;;;5164538;28;8816;-75
2022/11/01 10:20:44;;;;;;;;;47.20;41.20;;;;;;;;5165457;28;8856;-74
2022/11/01 10:23:16;;;;;;;;;54.00;42.20;;;;;;;;5180705;28;8819;-72
2022/11/01 10:26:07;;;;;;;;;5.60;4.80;;;;;;;;5180183;28;8800;-71
2022/11/01 10:28:45;;;;;;;;;27.60;26.20;;;;;;;;5198842;28;8832;-71
2022/11/01 10:31:20;;;;;;;;;12.60;11.60;;;;;;;;5169856;28;8814;-71
2022/11/01 10:34:17;;;;;;;;;26.80;24.20;;;;;;;;5205339;28;8809;-72
2022/11/01 10:36:49;;;;;;;;;26.20;26.20;;;;;;;;5223608;28;8782;-72
2022/11/01 10:39:24;;;;;;;;;9.60;9.60;;;;;;;;5204975;28;9607;-72
2022/11/01 10:41:55;;;;;;;;;26.20;25.80;;;;;;;;5186246;28;8801;-72
2022/11/01 10:44:29;;;;;;;;;49.40;41.00;;;;;;;;5169903;28;8812;-73
2022/11/01 10:47:03;;;;;;;;;41.00;35.00;;;;;;;;5204873;28;8797;-72
2022/11/01 10:49:36;;;;;;;;;44.00;36.40;;;;;;;;5202484;28;8790;-72
2022/11/01 10:52:10;;;;;;;;;16.20;14.80;;;;;;;;5202168;28;8813;-71
2022/11/01 10:54:42;;;;;;;;;26.00;24.20;;;;;;;;5185999;28;9498;-72
2022/11/01 10:57:21;;;;;;;;;51.20;40.00;;;;;;;;5186104;28;8832;-72
2022/11/01 10:59:53;;;;;;;;;55.60;41.80;;;;;;;;5202563;28;8785;-72
2022/11/01 11:02:26;;;;;;;;;29.20;25.40;;;;;;;;5202289;28;8806;-72
2022/11/01 11:04:58;;;;;;;;;43.40;34.00;;;;;;;;5185748;28;8781;-72
2022/11/01 11:07:30;;;;;;;;;46.20;32.60;;;;;;;;5186041;28;8944;-73
2022/11/01 11:10:01;;;;;;;;;15.40;14.20;;;;;;;;5185558;28;8781;-72
2022/11/01 11:12:34;;;;;;;;;25.00;23.00;;;;;;;;5185974;28;8819;-73
2022/11/01 11:15:14;;;;;;;;;27.20;26.40;;;;;;;;5201661;28;8773;-73
2022/11/01 11:17:49;;;;;;;;;26.40;23.60;;;;;;;;5185369;28;8981;-72
2022/11/01 11:20:23;;;;;;;;;25.00;22.00;;;;;;;;5185601;28;8894;-72
2022/11/01 11:23:12;;;;;;;;;22.00;18.00;;;;;;;;5187666;28;8797;-72
2022/11/01 11:25:44;;;;;;;;;25.25;23.00;;;;;;;;5169198;28;8813;-72
2022/11/01 11:28:20;;;;;;;;;18.60;16.40;;;;;;;;5185120;28;12225;-72
2022/11/01 11:30:52;;;;;;;;;30.40;30.40;;;;;;;;5165496;28;8934;-72
2022/11/01 11:33:23;;;;;;;;;45.80;39.00;;;;;;;;5181315;28;8780;-72
2022/11/01 11:36:12;;;;;;;;;49.00;43.80;;;;;;;;5172672;28;8802;-73
2022/11/01 11:38:44;;;;;;;;;21.75;21.00;;;;;;;;5201940;28;8820;-73
2022/11/01 11:41:32;;;;;;;;;27.20;27.20;;;;;;;;5201701;28;11629;-73
2022/11/01 11:44:03;;;;;;;;;26.40;23.60;;;;;;;;5185176;28;8797;-73
2022/11/01 11:46:56;;;;;;;;;5.20;3.80;;;;;;;;5187986;28;8866;-72
2022/11/01 11:49:27;;;;;;;;;18.60;17.40;;;;;;;;5169121;28;8797;-72
2022/11/01 11:51:58;;;;;;;;;16.00;14.60;;;;;;;;5203641;28;9643;-72
2022/11/01 11:54:36;;;;;;;;;16.75;16.50;;;;;;;;5205495;28;8918;-72
2022/11/01 11:57:10;;;;;;;;;8.60;8.60;;;;;;;;5188389;28;8893;-73
2022/11/01 11:59:42;;;;;;;;;57.00;44.60;;;;;;;;5184891;28;8924;-73
2022/11/01 12:02:17;;;;;;;;;24.20;22.40;;;;;;;;5185145;28;8782;-72
2022/11/01 12:04:57;;;;;;;;;15.20;13.60;;;;;;;;5185618;28;8870;-73
2022/11/01 12:07:30;;;;;;;;;21.20;20.00;;;;;;;;5185266;28;8810;-73
2022/11/01 12:10:02;;;;;;;;;17.00;17.00;;;;;;;;5168452;28;8798;-72
2022/11/01 12:12:39;;;;;;;;;7.00;6.40;;;;;;;;5201046;28;8812;-72
2022/11/01 12:15:29;;;;;;;;;21.20;20.60;;;;;;;;5201095;28;8904;-72
2022/11/01 12:18:13;;;;;;;;;19.40;18.80;;;;;;;;5202219;28;8793;-73
2022/11/01 12:20:48;;;;;;;;;37.80;37.40;;;;;;;;5168583;28;8826;-73
2022/11/01 12:23:34;;;;;;;;;8.40;8.40;;;;;;;;5211761;28;8855;-72
2022/11/01 12:26:10;;;;;;;;;22.00;20.00;;;;;;;;5221141;28;8859;-73
2022/11/01 12:28:44;;;;;;;;;27.20;25.80;;;;;;;;5194452;28;8784;-73
2022/11/01 12:31:19;;;;;;;;;33.40;29.80;;;;;;;;5164178;28;8772;-72
2022/11/01 12:33:56;;;;;;;;;31.80;30.20;;;;;;;;5179810;28;8795;-72
2022/11/01 12:36:30;;;;;;;;;30.00;26.40;;;;;;;;5163596;28;8795;-71
2022/11/01 12:39:18;;;;;;;;;20.40;20.20;;;;;;;;5180593;28;8931;-71
2022/11/01 12:41:54;;;;;;;;;13.80;13.40;;;;;;;;5164052;28;8820;-72
2022/11/01 12:44:28;;;;;;;;;1.80;1.80;;;;;;;;5209927;28;8917;-72
2022/11/01 12:47:19;;;;;;;;;5.60;4.80;;;;;;;;5188123;28;8771;-71
2022/11/01 12:49:50;;;;;;;;;9.80;9.80;;;;;;;;5165970;28;8826;-71
2022/11/01 12:52:26;;;;;;;;;18.25;17.00;;;;;;;;5180157;28;8784;-72
2022/11/01 12:55:13;;;;;;;;;24.00;24.00;;;;;;;;5163776;28;11469;-73
2022/11/01 12:57:44;;;;;;;;;35.60;34.60;;;;;;;;5163670;28;8808;-73
2022/11/01 13:00:17;;;;;;;;;18.20;18.20;;;;;;;;5164044;28;8858;-72
2022/11/01 13:03:14;;;;;;;;;10.80;10.80;;;;;;;;5150500;28;8820;-71
2022/11/01 13:05:45;;;;;;;;;17.40;17.40;;;;;;;;5201723;28;8824;-71
2022/11/01 13:08:22;;;;;;;;;17.25;15.75;;;;;;;;5179130;28;8791;-73
2022/11/01 13:11:31;;;;;;;;;19.40;19.40;;;;;;;;5206546;28;9256;-73
2022/11/01 13:14:11;;;;;;;;;23.20;19.00;;;;;;;;5215034;28;8917;-72
2022/11/01 13:16:46;;;;;;;;;35.20;32.40;;;;;;;;5204633;28;8790;-72
2022/11/01 13:19:20;;;;;;;;;48.80;43.40;;;;;;;;5187595;28;8802;-72
2022/11/01 13:21:51;;;;;;;;;14.80;8.60;;;;;;;;5201588;28;9551;-73
2022/11/01 13:24:28;;;;;;;;;75.00;54.00;;;;;;;;5183305;28;9394;-73
2022/11/01 13:27:11;;;;;;;;;49.60;41.60;;;;;;;;5170125;28;8830;-72
2022/11/01 13:29:58;;;;;;;;;77.00;59.20;;;;;;;;5218420;28;8798;-73
2022/11/01 13:32:29;;;;;;;;;22.40;19.20;;;;;;;;5210775;28;8847;-74
2022/11/01 13:35:18;;;;;;;;;16.20;15.40;;;;;;;;5203805;28;8783;-76
2022/11/01 13:37:54;;;;;;;;;14.20;14.20;;;;;;;;5222370;28;8827;-74
2022/11/01 13:40:43;;;;;;;;;12.40;12.20;;;;;;;;5206606;28;8891;-72
2022/11/01 13:43:20;;;;;;;;;8.00;8.00;;;;;;;;5220634;28;8811;-73
2022/11/01 13:45:54;;;;;;;;;12.40;12.40;;;;;;;;5186395;28;8853;-73
2022/11/01 13:48:25;;;;;;;;;12.60;12.60;;;;;;;;5183399;28;8792;-72
2022/11/01 13:51:09;;;;;;;;;22.75;21.25;;;;;;;;5183780;28;8873;-71
2022/11/01 13:53:48;;;;;;;;;61.20;46.00;;;;;;;;5187093;28;11504;-73
2022/11/01 13:56:29;;;;;;;;;24.20;24.00;;;;;;;;5187319;28;8921;-72
2022/11/01 13:59:02;;;;;;;;;20.40;20.40;;;;;;;;5203542;28;8789;-73
2022/11/01 14:01:34;;;;;;;;;7.60;7.60;;;;;;;;5170502;28;8886;-73
2022/11/01 14:04:18;;;;;;;;;24.20;23.80;;;;;;;;5209379;28;8875;-73
2022/11/01 14:06:50;;;;;;;;;18.60;17.20;;;;;;;;5200421;28;8788;-73
2022/11/01 14:09:28;;;;;;;;;20.20;19.60;;;;;;;;5182441;28;8780;-73
2022/11/01 14:12:10;;;;;;;;;31.80;30.00;;;;;;;;5166412;28;8784;-73
2022/11/01 14:14:42;;;;;;;;;30.60;29.80;;;;;;;;5166129;28;8788;-73
2022/11/01 14:17:19;;;;;;;;;8.60;7.60;;;;;;;;5166085;28;8768;-73
2022/11/01 14:19:57;;;;;;;;;31.40;28.80;;;;;;;;5195104;28;8809;-73
2022/11/01 14:22:32;;;;;;;;;4.20;4.20;;;;;;;;5168026;28;8809;-72
2022/11/01 14:25:21;;;;;;;;;19.80;17.00;;;;;;;;5202344;28;8817;-73
2022/11/01 14:28:11;;;;;;;;;19.25;19.25;;;;;;;;5184560;28;9524;-73
2022/11/01 14:31:00;;;;;;;;;6.60;6.60;;;;;;;;5201042;28;8929;-72
2022/11/01 14:33:32;;;;;;;;;12.00;11.20;;;;;;;;5184242;28;9476;-73
2022/11/01 14:36:04;;;;;;;;;29.60;28.80;;;;;;;;5204536;28;8882;-73
2022/11/01 14:38:40;;;;;;;;;43.60;37.40;;;;;;;;5221116;28;8944;-72
2022/11/01 14:41:12;;;;;;;;;27.80;27.40;;;;;;;;5184684;28;8804;-73
2022/11/01 14:43:58;;;;;;;;;8.00;8.00;;;;;;;;5184147;28;8789;-72
2022/11/01 14:46:30;;;;;;;;;8.00;8.00;;;;;;;;5201715;28;9615;-71
2022/11/01 14:49:04;;;;;;;;;15.60;14.20;;;;;;;;5206285;28;8859;-72
2022/11/01 14:51:43;;;;;;;;;50.60;44.40;;;;;;;;5221287;27;9517;-73
2022/11/01 14:54:14;;;;;;;;;7.80;7.20;;;;;;;;5222070;28;8782;-72
2022/11/01 14:56:50;;;;;;;;;19.00;16.00;;;;;;;;5204405;28;8802;-71
2022/11/01 14:59:23;;;;;;;;;23.40;21.00;;;;;;;;5192031;28;11311;-72
2022/11/01 15:01:56;;;;;;;;;16.40;16.40;;;;;;;;5199797;28;8838;-73
2022/11/01 15:04:28;;;;;;;;;18.80;17.20;;;;;;;;5184307;28;8820;-73
2022/11/01 15:06:59;;;;;;;;;50.00;43.20;;;;;;;;5202125;28;8870;-73
2022/11/01 15:09:30;;;;;;;;;28.20;25.40;;;;;;;;5184194;28;8801;-73
2022/11/01 15:12:07;;;;;;;;;0.60;0.40;;;;;;;;5200259;28;9587;-72
2022/11/01 15:14:57;;;;;;;;;25.80;25.00;;;;;;;;5211929;28;8888;-72
2022/11/01 15:17:29;;;;;;;;;20.20;19.20;;;;;;;;5204142;27;8961;-72
2022/11/01 15:20:02;;;;;;;;;22.20;22.00;;;;;;;;5187830;28;8936;-73
2022/11/01 15:22:33;;;;;;;;;8.60;8.60;;;;;;;;5222033;28;8798;-71
2022/11/01 15:25:05;;;;;;;;;5.00;5.00;;;;;;;;5206340;28;8845;-72
2022/11/01 15:27:36;;;;;;;;;8.20;8.20;;;;;;;;5200165;28;8793;-72